Time;durP1;ratioP1;P1;durP2;ratioP2;P2;SDS_P1;SDS_P2;PMS_P1;PMS_P2;Temp;Humidity;BMP_temperature;BMP_pressure;BME280_temperature;BME280_humidity;BME280_pressure;Samples;Min_cycle;Max_cycle;Signal;HPM_P1;HPM_P2
2024/01/15 00:02:06;;;;;;;38.10;13.32;;;1.70;99.90;;;;;;5036177;28;20170;-79
2024/01/15 00:04:37;;;;;;;37.10;13.30;;;1.60;99.90;;;;;;5018015;28;20177;-79
2024/01/15 00:07:03;;;;;;;37.95;12.00;;;1.60;99.90;;;;;;5018123;28;20586;-80
2024/01/15 00:09:29;;;;;;;38.60;12.20;;;1.60;99.90;;;;;;5035875;28;20194;-79
2024/01/15 00:11:54;;;;;;;36.77;13.80;;;1.60;99.90;;;;;;5035677;28;20200;-79
2024/01/15 00:14:20;;;;;;;35.30;12.00;;;1.60;99.90;;;;;;5017920;28;20265;-79
2024/01/15 00:16:46;;;;;;;43.93;12.90;;;1.60;99.90;;;;;;5035256;28;20610;-79
2024/01/15 00:19:12;;;;;;;30.52;11.75;;;1.60;99.90;;;;;;5035840;28;20158;-79
2024/01/15 00:21:38;;;;;;;38.83;11.30;;;1.60;99.90;;;;;;5035291;28;20257;-79
2024/01/15 00:24:04;;;;;;;37.67;13.13;;;1.60;99.90;;;;;;5017546;28;20663;-79
2024/01/15 00:26:29;;;;;;;40.73;12.20;;;1.60;99.90;;;;;;5034955;28;20285;-79
2024/01/15 00:28:55;;;;;;;35.93;12.53;;;1.60;99.90;;;;;;5035149;28;20400;-79
2024/01/15 00:31:21;;;;;;;35.73;11.77;;;1.60;99.90;;;;;;5017468;28;20445;-79
2024/01/15 00:33:46;;;;;;;42.70;15.00;;;1.60;99.90;;;;;;5035458;28;20169;-79
2024/01/15 00:36:13;;;;;;;37.80;11.90;;;1.60;99.90;;;;;;5035339;28;20185;-79
2024/01/15 00:38:39;;;;;;;36.35;13.98;;;1.60;99.90;;;;;;5034686;28;20191;-79
2024/01/15 00:41:04;;;;;;;40.87;11.90;;;1.60;99.90;;;;;;5034785;28;20257;-80
2024/01/15 00:43:30;;;;;;;34.47;12.90;;;1.60;99.90;;;;;;5035066;28;20177;-80
2024/01/15 00:45:56;;;;;;;35.50;13.23;;;1.50;99.90;;;;;;5034814;28;20170;-78
2024/01/15 00:48:21;;;;;;;44.20;14.13;;;1.50;99.90;;;;;;5034933;28;20170;-79
2024/01/15 00:50:47;;;;;;;44.27;11.90;;;1.50;99.90;;;;;;5034436;28;20674;-79
2024/01/15 00:53:12;;;;;;;37.80;13.30;;;1.50;99.90;;;;;;5017048;28;20632;-79
2024/01/15 00:55:38;;;;;;;35.50;11.57;;;1.60;99.90;;;;;;5016833;28;20176;-80
2024/01/15 00:58:04;;;;;;;35.93;12.07;;;1.50;99.90;;;;;;5034486;28;20186;-79
2024/01/15 01:00:29;;;;;;;42.33;12.53;;;1.50;99.90;;;;;;5034687;28;20170;-79
2024/01/15 01:02:55;;;;;;;36.57;13.30;;;1.50;99.90;;;;;;5034893;28;20178;-80
2024/01/15 01:05:21;;;;;;;39.87;12.90;;;1.50;99.90;;;;;;5017041;28;20192;-80
2024/01/15 01:07:46;;;;;;;38.63;13.37;;;1.50;99.90;;;;;;5034269;28;20193;-80
2024/01/15 01:10:12;;;;;;;35.03;12.50;;;1.50;99.90;;;;;;5034445;28;20177;-80
2024/01/15 01:12:38;;;;;;;39.33;12.37;;;1.50;99.90;;;;;;5034525;28;20186;-80
2024/01/15 01:15:04;;;;;;;37.83;11.43;;;1.50;99.90;;;;;;5034978;28;20619;-80
2024/01/15 01:17:30;;;;;;;37.10;13.95;;;1.50;99.90;;;;;;5034332;28;20189;-79
2024/01/15 01:19:56;;;;;;;32.00;11.10;;;1.50;99.90;;;;;;5017358;28;20166;-80
2024/01/15 01:22:21;;;;;;;47.73;14.40;;;1.50;99.90;;;;;;5034333;28;20166;-79
2024/01/15 01:24:47;;;;;;;37.80;13.23;;;1.50;99.90;;;;;;5034235;28;20170;-79
2024/01/15 01:27:13;;;;;;;35.67;13.17;;;1.50;99.90;;;;;;5034546;28;20201;-80
2024/01/15 01:29:38;;;;;;;41.93;14.93;;;1.50;99.90;;;;;;5034676;28;20166;-80
2024/01/15 01:32:04;;;;;;;44.00;14.83;;;1.50;99.90;;;;;;5034201;28;20289;-80
2024/01/15 01:34:32;;;;;;;41.97;14.37;;;1.50;99.90;;;;;;5033949;28;20162;-80
2024/01/15 01:36:58;;;;;;;36.10;12.55;;;1.50;99.90;;;;;;5034259;28;20424;-80
2024/01/15 01:39:24;;;;;;;36.43;12.97;;;1.50;99.90;;;;;;5033493;28;20284;-80
2024/01/15 01:41:49;;;;;;;42.87;14.87;;;1.50;99.90;;;;;;5034018;28;20166;-79
2024/01/15 01:44:15;;;;;;;39.93;14.63;;;1.50;99.90;;;;;;5033919;28;20255;-79
2024/01/15 01:46:41;;;;;;;41.50;12.77;;;1.50;99.90;;;;;;5033877;28;20185;-80
2024/01/15 01:49:08;;;;;;;42.80;13.00;;;1.50;99.90;;;;;;5033972;28;20169;-79
2024/01/15 01:51:37;;;;;;;39.13;14.10;;;1.50;99.90;;;;;;5034347;28;20432;-80
2024/01/15 01:54:04;;;;;;;35.30;11.90;;;1.50;99.90;;;;;;5033915;28;20212;-80
2024/01/15 01:56:30;;;;;;;34.67;12.68;;;1.50;99.90;;;;;;5033621;28;20209;-80
2024/01/15 01:58:56;;;;;;;39.67;12.55;;;1.50;99.90;;;;;;5033673;28;20167;-80
2024/01/15 02:01:22;;;;;;;46.53;16.50;;;1.50;99.90;;;;;;5033897;28;20630;-80
2024/01/15 02:03:48;;;;;;;40.00;15.07;;;1.50;99.90;;;;;;5034082;28;20224;-80
2024/01/15 02:06:14;;;;;;;42.28;14.45;;;1.50;99.90;;;;;;5033891;28;20429;-79
2024/01/15 02:08:43;;;;;;;42.97;14.50;;;1.60;99.90;;;;;;5034109;28;20631;-79
2024/01/15 02:11:09;;;;;;;37.75;12.63;;;1.60;99.90;;;;;;5015690;28;20265;-80
2024/01/15 02:13:34;;;;;;;38.20;13.40;;;1.60;99.90;;;;;;5033685;28;20158;-80
2024/01/15 02:16:00;;;;;;;44.77;15.40;;;1.60;99.90;;;;;;5033397;28;20159;-81
2024/01/15 02:18:26;;;;;;;34.70;12.97;;;1.50;99.90;;;;;;5015721;28;20216;-79
2024/01/15 02:20:54;;;;;;;44.07;15.30;;;1.60;99.90;;;;;;5033489;28;20162;-80
2024/01/15 02:23:20;;;;;;;36.00;12.68;;;1.60;99.90;;;;;;5033643;28;20603;-80
2024/01/15 02:25:47;;;;;;;43.23;13.20;;;1.60;99.90;;;;;;5015714;28;20292;-80
2024/01/15 02:28:15;;;;;;;40.30;14.30;;;1.60;99.90;;;;;;5033569;28;20150;-80
2024/01/15 02:30:42;;;;;;;41.53;13.55;;;1.60;99.90;;;;;;5015744;28;20166;-80
2024/01/15 02:33:09;;;;;;;39.35;14.07;;;1.50;99.90;;;;;;5033138;28;20163;-80
2024/01/15 02:35:38;;;;;;;39.15;14.35;;;1.60;99.90;;;;;;5033485;28;20262;-80
2024/01/15 02:38:04;;;;;;;36.15;12.18;;;1.50;99.90;;;;;;5015525;28;20324;-80
2024/01/15 02:40:30;;;;;;;38.58;14.02;;;1.50;99.90;;;;;;5015473;28;20170;-81
2024/01/15 02:42:56;;;;;;;36.67;12.67;;;1.50;99.90;;;;;;5033083;28;20590;-79
2024/01/15 02:45:22;;;;;;;41.50;13.77;;;1.50;99.90;;;;;;5033217;28;20188;-80
2024/01/15 02:47:48;;;;;;;41.35;15.18;;;1.50;99.90;;;;;;5033462;28;20192;-80
2024/01/15 02:50:14;;;;;;;34.63;12.70;;;1.60;99.90;;;;;;5033985;28;20173;-80
2024/01/15 02:52:40;;;;;;;38.00;13.80;;;1.60;99.90;;;;;;5036854;28;20436;-80
2024/01/15 02:55:06;;;;;;;37.95;16.02;;;1.60;99.90;;;;;;5019105;28;20169;-80
2024/01/15 02:57:31;;;;;;;39.88;13.95;;;1.60;99.90;;;;;;5036486;28;20235;-80
2024/01/15 02:59:57;;;;;;;37.03;14.20;;;1.60;99.90;;;;;;5018681;28;20520;-80
2024/01/15 03:02:23;;;;;;;41.70;14.57;;;1.60;99.90;;;;;;5036787;28;20165;-80
2024/01/15 03:04:48;;;;;;;42.03;16.93;;;1.60;99.90;;;;;;5036839;28;20196;-80
2024/01/15 03:07:14;;;;;;;42.20;15.20;;;1.60;99.90;;;;;;5036561;28;20193;-79
2024/01/15 03:09:39;;;;;;;38.20;13.77;;;1.60;99.90;;;;;;5036653;28;20170;-80
2024/01/15 03:12:06;;;;;;;38.20;13.50;;;1.60;99.90;;;;;;5036351;28;20213;-80
2024/01/15 03:14:32;;;;;;;42.17;13.85;;;1.50;99.90;;;;;;5036187;28;20166;-79
2024/01/15 03:16:57;;;;;;;40.63;14.00;;;1.50;99.90;;;;;;5036754;28;20238;-80
2024/01/15 03:19:23;;;;;;;40.87;15.10;;;1.60;99.90;;;;;;5036794;28;20628;-80
2024/01/15 03:21:48;;;;;;;38.97;12.50;;;1.60;99.90;;;;;;5036502;28;20720;-79
2024/01/15 03:24:14;;;;;;;37.93;13.17;;;1.60;99.90;;;;;;5036388;28;20697;-80
2024/01/15 03:26:40;;;;;;;39.20;13.73;;;1.60;99.90;;;;;;5018222;28;20209;-80
2024/01/15 03:29:06;;;;;;;38.70;13.93;;;1.50;99.90;;;;;;5036183;28;20174;-80
2024/01/15 03:31:31;;;;;;;38.92;15.07;;;1.60;99.90;;;;;;5036166;28;20194;-79
2024/01/15 03:33:57;;;;;;;34.60;14.43;;;1.60;99.90;;;;;;5036708;28;20207;-80
2024/01/15 03:36:23;;;;;;;40.50;12.90;;;1.60;99.90;;;;;;5036413;28;20283;-79
2024/01/15 03:38:51;;;;;;;39.93;16.20;;;1.50;99.90;;;;;;5036457;28;20645;-80
2024/01/15 03:41:17;;;;;;;35.95;13.50;;;1.50;99.90;;;;;;5036109;28;20244;-80
2024/01/15 03:43:42;;;;;;;36.90;14.47;;;1.60;99.90;;;;;;5036305;28;20194;-80
2024/01/15 03:46:08;;;;;;;34.77;13.23;;;1.60;99.90;;;;;;5036073;28;20190;-80
2024/01/15 03:48:34;;;;;;;38.23;12.70;;;1.60;99.90;;;;;;5035844;28;20170;-79
2024/01/15 03:50:59;;;;;;;42.37;14.20;;;1.60;99.90;;;;;;5035909;28;20260;-80
2024/01/15 03:53:25;;;;;;;34.60;12.20;;;1.60;99.90;;;;;;5036011;28;20162;-80
2024/01/15 03:55:51;;;;;;;39.40;16.23;;;1.70;99.90;;;;;;5035972;28;20523;-80
2024/01/15 03:58:17;;;;;;;42.05;14.15;;;1.60;99.90;;;;;;5035758;28;20662;-79
2024/01/15 04:00:43;;;;;;;35.10;12.83;;;1.60;99.90;;;;;;5036187;28;20170;-80
2024/01/15 04:03:09;;;;;;;41.60;14.13;;;1.60;99.90;;;;;;5034940;28;20166;-80
2024/01/15 04:05:34;;;;;;;41.00;15.40;;;1.70;99.90;;;;;;5035992;28;20158;-80
2024/01/15 04:08:00;;;;;;;42.30;13.07;;;1.70;99.90;;;;;;5019365;28;21018;-80
2024/01/15 04:10:26;;;;;;;36.20;13.00;;;1.60;99.90;;;;;;5036034;28;20162;-80
2024/01/15 04:12:52;;;;;;;34.37;12.87;;;1.70;99.90;;;;;;5035813;28;20186;-80
2024/01/15 04:15:17;;;;;;;37.07;13.90;;;1.70;99.90;;;;;;5035621;28;20754;-80
2024/01/15 04:17:43;;;;;;;43.97;14.17;;;1.70;99.90;;;;;;5035639;28;20416;-80
2024/01/15 04:20:09;;;;;;;37.23;14.60;;;1.70;99.90;;;;;;5035820;28;20162;-80
2024/01/15 04:22:36;;;;;;;39.30;13.77;;;1.70;99.90;;;;;;5017940;28;20413;-80
2024/01/15 04:25:02;;;;;;;36.72;13.73;;;1.70;99.90;;;;;;5035464;28;20172;-80
2024/01/15 04:27:27;;;;;;;40.73;13.73;;;1.70;99.90;;;;;;5035474;28;20256;-79
2024/01/15 04:29:53;;;;;;;38.23;12.17;;;1.70;99.90;;;;;;5035406;28;20404;-80
2024/01/15 04:32:19;;;;;;;41.33;15.60;;;1.70;99.90;;;;;;5035964;28;20224;-80
2024/01/15 04:34:45;;;;;;;39.90;13.90;;;1.70;99.90;;;;;;5036325;28;20595;-80
2024/01/15 04:37:11;;;;;;;36.05;13.43;;;1.70;99.90;;;;;;5018807;28;20209;-80
2024/01/15 04:39:36;;;;;;;37.17;12.73;;;1.70;99.90;;;;;;5035745;28;20662;-80
2024/01/15 04:42:03;;;;;;;31.97;12.97;;;1.70;99.90;;;;;;5036440;28;20169;-82
2024/01/15 04:44:29;;;;;;;36.05;12.43;;;1.70;99.90;;;;;;5036312;28;20252;-80
2024/01/15 04:46:54;;;;;;;38.38;13.50;;;1.70;99.90;;;;;;5018617;28;20222;-80
2024/01/15 04:49:20;;;;;;;39.70;12.33;;;1.70;99.90;;;;;;5036349;28;20165;-79
2024/01/15 04:51:46;;;;;;;30.93;11.30;;;1.70;99.90;;;;;;5035257;28;20217;-80
2024/01/15 04:54:12;;;;;;;33.27;12.50;;;1.70;99.90;;;;;;5035338;28;20165;-80
2024/01/15 04:56:37;;;;;;;35.83;11.40;;;1.70;99.90;;;;;;5017431;28;20428;-80
2024/01/15 04:59:03;;;;;;;39.30;12.37;;;1.70;99.90;;;;;;5034951;28;20165;-80
2024/01/15 05:01:32;;;;;;;33.53;11.27;;;1.80;99.90;;;;;;5035044;28;20432;-80
2024/01/15 05:03:58;;;;;;;33.08;12.43;;;1.80;99.90;;;;;;5034638;28;20185;-80
2024/01/15 05:06:24;;;;;;;32.15;11.25;;;1.80;99.90;;;;;;5017302;28;20190;-80
2024/01/15 05:08:50;;;;;;;29.73;10.90;;;1.80;99.90;;;;;;5017172;28;20166;-80
2024/01/15 05:11:16;;;;;;;35.97;11.80;;;1.80;99.90;;;;;;5034491;28;20555;-79
2024/01/15 05:13:41;;;;;;;33.63;11.73;;;1.90;99.90;;;;;;5034690;28;20228;-80
2024/01/15 05:16:07;;;;;;;32.80;11.40;;;1.90;99.90;;;;;;5034432;28;20900;-80
2024/01/15 05:18:33;;;;;;;31.60;10.70;;;1.90;99.90;;;;;;5034557;28;20165;-81
2024/01/15 05:20:59;;;;;;;32.87;10.70;;;1.90;99.90;;;;;;5016880;28;20487;-80
2024/01/15 05:23:24;;;;;;;31.40;10.23;;;1.80;99.90;;;;;;5034163;28;20396;-79
2024/01/15 05:25:50;;;;;;;30.60;10.97;;;1.80;99.90;;;;;;5034274;28;20181;-80
2024/01/15 05:28:16;;;;;;;37.63;10.27;;;1.80;99.90;;;;;;5034553;28;20157;-79
2024/01/15 05:30:41;;;;;;;34.73;10.23;;;1.80;99.90;;;;;;5034160;28;20162;-80
2024/01/15 05:33:07;;;;;;;29.57;9.43;;;1.80;99.90;;;;;;5017022;28;20178;-80
2024/01/15 05:35:34;;;;;;;33.20;10.60;;;1.80;99.90;;;;;;5033980;28;20658;-80
2024/01/15 05:37:59;;;;;;;33.60;10.45;;;1.80;99.90;;;;;;5034062;28;20217;-80
2024/01/15 05:40:25;;;;;;;32.17;9.90;;;1.80;99.90;;;;;;5034075;28;20170;-80
2024/01/15 05:42:51;;;;;;;29.70;9.53;;;1.90;99.90;;;;;;5016526;28;20173;-80
2024/01/15 05:45:16;;;;;;;26.70;9.77;;;1.90;99.90;;;;;;5016461;28;20708;-80
2024/01/15 05:47:43;;;;;;;29.27;9.63;;;1.90;99.90;;;;;;5016930;28;20223;-80
2024/01/15 05:50:12;;;;;;;36.72;11.25;;;1.90;99.90;;;;;;5034740;28;20173;-81
2024/01/15 05:52:38;;;;;;;26.02;9.00;;;1.90;99.90;;;;;;5034979;28;20186;-80
2024/01/15 05:55:04;;;;;;;28.13;9.90;;;1.90;99.90;;;;;;5035452;28;20170;-80
2024/01/15 05:57:30;;;;;;;33.35;9.60;;;1.90;99.90;;;;;;5035087;28;20188;-80
2024/01/15 05:59:56;;;;;;;31.75;9.68;;;2.00;99.90;;;;;;5017673;28;20225;-80
2024/01/15 06:02:21;;;;;;;30.50;10.00;;;2.00;99.90;;;;;;5036070;28;20173;-81
2024/01/15 06:04:47;;;;;;;27.23;10.00;;;2.00;99.90;;;;;;5035802;28;20224;-82
2024/01/15 06:07:13;;;;;;;27.00;9.50;;;2.00;99.90;;;;;;5035551;28;20245;-80
2024/01/15 06:09:38;;;;;;;30.53;9.13;;;2.00;99.90;;;;;;5018192;28;20602;-79
2024/01/15 06:12:06;;;;;;;27.90;9.57;;;2.00;99.90;;;;;;5035142;28;20269;-80
2024/01/15 06:14:32;;;;;;;28.23;11.35;;;2.00;99.90;;;;;;5035913;28;20154;-81
2024/01/15 06:16:58;;;;;;;27.90;9.93;;;2.00;99.90;;;;;;5018151;28;20544;-80
2024/01/15 06:19:23;;;;;;;28.10;9.97;;;2.00;99.90;;;;;;5019687;28;20237;-81
2024/01/15 06:21:49;;;;;;;33.40;11.53;;;2.00;99.90;;;;;;5036205;28;20165;-82
2024/01/15 06:24:15;;;;;;;35.40;11.00;;;2.00;99.90;;;;;;5036878;28;20193;-81
2024/01/15 06:26:41;;;;;;;25.58;8.70;;;2.00;99.90;;;;;;5039323;28;20582;-81
2024/01/15 06:29:06;;;;;;;31.60;10.17;;;2.00;99.90;;;;;;5022981;28;20174;-81
2024/01/15 06:31:32;;;;;;;27.57;9.60;;;2.00;99.90;;;;;;5039374;28;20182;-81
2024/01/15 06:33:58;;;;;;;29.27;9.73;;;2.00;99.90;;;;;;5038914;28;20173;-81
2024/01/15 06:36:23;;;;;;;39.03;10.70;;;2.00;99.90;;;;;;5020390;28;20197;-81
2024/01/15 06:38:49;;;;;;;27.57;8.63;;;2.00;99.90;;;;;;5038830;28;20785;-81
2024/01/15 06:41:15;;;;;;;31.73;9.80;;;2.00;99.90;;;;;;5038262;28;20177;-81
2024/01/15 06:43:40;;;;;;;32.23;10.27;;;2.00;99.90;;;;;;5038446;28;20177;-81
2024/01/15 06:46:06;;;;;;;30.80;9.97;;;2.00;99.90;;;;;;5038604;28;20192;-81
2024/01/15 06:48:32;;;;;;;30.30;10.13;;;2.00;99.90;;;;;;5020547;28;20170;-80
2024/01/15 06:50:57;;;;;;;28.10;10.63;;;2.10;99.90;;;;;;5038758;28;20177;-81
2024/01/15 06:53:23;;;;;;;27.40;9.10;;;2.00;99.90;;;;;;5021846;28;20284;-82
2024/01/15 06:55:51;;;;;;;37.00;11.00;;;2.00;99.90;;;;;;5021013;28;20224;-82
2024/01/15 06:58:16;;;;;;;33.85;13.30;;;2.00;99.90;;;;;;5020500;28;20264;-82
2024/01/15 07:00:42;;;;;;;29.80;9.73;;;2.00;99.90;;;;;;5039548;28;20197;-82
2024/01/15 07:03:07;;;;;;;35.07;12.27;;;2.10;99.90;;;;;;5039928;28;20169;-82
2024/01/15 07:05:33;;;;;;;30.03;9.73;;;2.00;99.90;;;;;;5023064;28;20199;-81
2024/01/15 07:07:59;;;;;;;40.70;13.20;;;2.10;99.90;;;;;;5039541;28;20277;-82
2024/01/15 07:10:26;;;;;;;36.80;9.87;;;2.10;99.90;;;;;;5039404;28;20170;-82
2024/01/15 07:12:51;;;;;;;31.90;9.65;;;2.10;99.90;;;;;;5039411;28;20198;-81
2024/01/15 07:15:17;;;;;;;29.23;10.60;;;2.10;99.90;;;;;;5038666;28;20249;-82
2024/01/15 07:17:42;;;;;;;28.97;9.47;;;2.10;99.90;;;;;;5039033;28;20189;-82
2024/01/15 07:20:09;;;;;;;28.60;10.60;;;2.10;99.90;;;;;;5039661;28;20170;-82
2024/01/15 07:22:37;;;;;;;26.98;10.23;;;2.00;99.90;;;;;;5039562;28;20185;-81
2024/01/15 07:25:04;;;;;;;25.73;8.63;;;2.10;99.90;;;;;;5038368;28;20225;-82
2024/01/15 07:27:31;;;;;;;32.17;10.38;;;2.10;99.90;;;;;;5038015;28;20201;-82
2024/01/15 07:29:57;;;;;;;29.95;10.70;;;2.10;99.90;;;;;;5039209;28;20194;-83
2024/01/15 07:32:22;;;;;;;33.67;11.30;;;2.10;99.90;;;;;;5039050;28;20189;-82
2024/01/15 07:34:49;;;;;;;31.17;11.10;;;2.10;99.90;;;;;;5038606;28;20786;-84
2024/01/15 07:37:14;;;;;;;31.50;10.93;;;2.10;99.90;;;;;;5037068;28;20268;-82
2024/01/15 07:39:40;;;;;;;33.73;11.90;;;2.10;99.90;;;;;;5020514;28;20204;-84
2024/01/15 07:42:06;;;;;;;31.17;11.37;;;2.10;99.90;;;;;;5038815;28;20178;-82
2024/01/15 07:44:31;;;;;;;33.20;12.70;;;2.10;99.90;;;;;;5038990;28;20170;-82
2024/01/15 07:46:57;;;;;;;37.13;10.87;;;2.10;99.90;;;;;;5038823;28;20503;-82
2024/01/15 07:49:23;;;;;;;33.60;11.00;;;2.00;99.90;;;;;;5039043;28;20204;-82
2024/01/15 07:51:49;;;;;;;37.43;12.00;;;2.10;99.90;;;;;;5020517;28;20444;-83
2024/01/15 07:54:15;;;;;;;33.43;11.10;;;2.10;99.90;;;;;;5038342;28;20408;-82
2024/01/15 07:57:00;;;;;;;38.07;12.77;;;2.10;99.90;;;;;;5039366;28;20189;-82
2024/01/15 07:59:26;;;;;;;31.13;13.82;;;2.10;99.90;;;;;;5038292;28;20399;-82
2024/01/15 08:01:53;;;;;;;31.38;11.13;;;2.20;99.90;;;;;;5038419;28;20241;-83
2024/01/15 08:04:19;;;;;;;35.50;12.65;;;2.20;99.90;;;;;;5038054;28;20220;-82
2024/01/15 08:06:45;;;;;;;36.15;11.05;;;2.20;99.90;;;;;;5020289;28;20189;-81
2024/01/15 08:09:12;;;;;;;32.85;13.77;;;2.20;99.90;;;;;;5020377;28;20587;-82
2024/01/15 08:11:41;;;;;;;33.03;11.00;;;2.30;99.90;;;;;;5038089;28;20193;-83
2024/01/15 08:14:07;;;;;;;28.80;10.73;;;2.30;99.90;;;;;;5038134;28;20166;-82
2024/01/15 08:16:33;;;;;;;33.85;11.18;;;2.30;99.90;;;;;;5019912;28;20280;-82
2024/01/15 08:18:59;;;;;;;37.87;12.37;;;2.30;99.90;;;;;;5020699;28;20209;-83
2024/01/15 08:21:25;;;;;;;32.30;10.77;;;2.30;99.90;;;;;;5020404;28;20948;-82
2024/01/15 08:23:50;;;;;;;27.70;10.30;;;2.30;99.90;;;;;;5038128;28;20178;-82
2024/01/15 08:26:16;;;;;;;38.43;12.80;;;2.30;99.90;;;;;;5038344;28;20213;-83
2024/01/15 08:28:42;;;;;;;32.87;11.73;;;2.40;99.90;;;;;;5019675;28;20300;-83
2024/01/15 08:31:07;;;;;;;38.63;12.27;;;2.40;99.90;;;;;;5037746;28;20196;-84
2024/01/15 08:33:33;;;;;;;32.20;11.17;;;2.40;99.90;;;;;;5037235;28;20246;-83
2024/01/15 08:35:59;;;;;;;28.67;11.30;;;2.40;99.90;;;;;;5037151;28;20589;-82
2024/01/15 08:38:25;;;;;;;32.33;12.43;;;2.40;99.90;;;;;;5036669;28;20197;-83
2024/01/15 08:40:53;;;;;;;35.55;11.52;;;2.40;99.90;;;;;;5036922;28;20661;-82
2024/01/15 08:43:19;;;;;;;31.42;11.60;;;2.40;99.90;;;;;;5018712;28;20161;-83
2024/01/15 08:45:45;;;;;;;30.90;11.10;;;2.40;99.90;;;;;;5036840;28;20154;-82
2024/01/15 08:48:10;;;;;;;34.60;11.93;;;2.40;99.90;;;;;;5018169;28;20185;-82
2024/01/15 08:50:36;;;;;;;36.30;11.70;;;2.30;99.90;;;;;;5036138;28;20174;-82
2024/01/15 08:53:02;;;;;;;32.13;10.43;;;2.40;99.90;;;;;;5036813;28;20208;-84
2024/01/15 08:55:31;;;;;;;27.27;10.60;;;2.40;99.90;;;;;;5018349;28;20212;-83
2024/01/15 08:57:57;;;;;;;29.05;10.15;;;2.40;99.90;;;;;;5018353;28;20186;-82
2024/01/15 09:00:22;;;;;;;30.57;9.53;;;2.40;99.90;;;;;;5036121;28;20237;-82
2024/01/15 09:02:48;;;;;;;31.10;9.47;;;2.40;99.90;;;;;;5036031;28;20170;-82
2024/01/15 09:05:14;;;;;;;26.97;8.47;;;2.40;99.90;;;;;;5036128;28;20173;-82
2024/01/15 09:07:39;;;;;;;34.03;8.70;;;2.40;99.90;;;;;;5035868;28;20247;-82
2024/01/15 09:10:06;;;;;;;24.33;8.60;;;2.40;99.90;;;;;;5017967;28;20543;-82
2024/01/15 09:12:32;;;;;;;32.33;9.00;;;2.40;99.90;;;;;;5018006;28;20626;-82
2024/01/15 09:14:57;;;;;;;21.50;6.13;;;2.40;99.90;;;;;;5017585;28;20162;-80
2024/01/15 09:17:23;;;;;;;23.57;6.77;;;2.40;99.90;;;;;;5035137;28;20185;-81
2024/01/15 09:19:49;;;;;;;27.60;8.00;;;2.40;99.90;;;;;;5035412;28;20162;-81
2024/01/15 09:22:18;;;;;;;24.90;7.18;;;2.40;99.90;;;;;;5035243;28;20170;-81
2024/01/15 09:24:44;;;;;;;21.35;6.07;;;2.40;99.90;;;;;;5017622;28;20713;-81
2024/01/15 09:27:10;;;;;;;30.13;7.50;;;2.40;99.90;;;;;;5035502;28;20210;-81
2024/01/15 09:29:39;;;;;;;23.90;6.90;;;2.30;99.90;;;;;;5035608;28;20546;-80
2024/01/15 09:32:06;;;;;;;27.60;7.10;;;2.30;99.90;;;;;;5018071;28;20204;-82
2024/01/15 09:34:32;;;;;;;27.85;7.00;;;2.30;99.90;;;;;;5036047;28;20158;-81
2024/01/15 09:36:57;;;;;;;22.40;5.40;;;2.20;99.90;;;;;;5034937;28;20208;-83
2024/01/15 09:39:23;;;;;;;25.27;5.90;;;2.20;99.90;;;;;;5034815;28;20197;-82
2024/01/15 09:41:49;;;;;;;21.33;6.03;;;2.10;99.90;;;;;;5017690;28;20174;-82
2024/01/15 09:44:16;;;;;;;21.67;6.03;;;2.10;99.90;;;;;;5035217;28;20203;-81
2024/01/15 09:46:44;;;;;;;24.90;5.80;;;2.10;99.90;;;;;;5035240;28;20197;-81
2024/01/15 09:49:10;;;;;;;23.05;5.72;;;2.00;99.90;;;;;;5017636;28;20170;-82
2024/01/15 09:51:37;;;;;;;24.33;7.07;;;2.00;99.90;;;;;;5035800;28;20550;-83
2024/01/15 09:54:03;;;;;;;19.52;5.70;;;1.90;99.90;;;;;;5036169;28;20162;-83
2024/01/15 09:56:30;;;;;;;22.13;5.88;;;1.90;99.90;;;;;;5035412;28;20185;-82
2024/01/15 09:58:57;;;;;;;23.70;7.15;;;1.90;99.90;;;;;;5035205;28;20158;-81
2024/01/15 10:01:23;;;;;;;24.73;6.63;;;1.90;99.90;;;;;;5021302;28;20176;-83
2024/01/15 10:03:50;;;;;;;26.25;6.85;;;1.90;99.90;;;;;;5041500;28;20173;-83
2024/01/15 10:06:19;;;;;;;20.95;6.47;;;1.90;99.90;;;;;;5042879;28;20272;-84
2024/01/15 10:08:51;;;;;;;23.15;7.97;;;1.90;99.90;;;;;;5026902;28;20169;-84
2024/01/15 10:11:17;;;;;;;21.20;6.40;;;2.00;99.90;;;;;;5043831;28;20193;-82
2024/01/15 10:13:46;;;;;;;22.10;7.10;;;2.10;99.90;;;;;;5040558;28;20632;-83
2024/01/15 10:16:12;;;;;;;20.80;5.80;;;2.10;99.90;;;;;;5022161;28;20182;-82
2024/01/15 10:18:39;;;;;;;22.03;7.00;;;2.20;99.90;;;;;;5040503;28;20162;-82
2024/01/15 10:21:07;;;;;;;23.45;6.60;;;2.20;99.90;;;;;;5039780;28;20435;-82
2024/01/15 10:23:33;;;;;;;21.38;5.13;;;2.30;99.90;;;;;;5022125;28;20174;-83
2024/01/15 10:26:00;;;;;;;21.07;5.10;;;2.30;99.90;;;;;;5039428;28;20566;-82
2024/01/15 10:28:30;;;;;;;20.38;6.03;;;2.30;99.90;;;;;;5039828;28;20757;-82
2024/01/15 10:30:57;;;;;;;19.70;5.07;;;2.20;99.90;;;;;;5040647;28;20158;-84
2024/01/15 10:33:27;;;;;;;18.50;4.40;;;2.10;99.90;;;;;;5041591;28;20158;-83
2024/01/15 10:35:57;;;;;;;22.45;4.68;;;2.10;99.90;;;;;;5041227;28;20635;-84
2024/01/15 10:38:24;;;;;;;21.95;4.90;;;2.10;99.90;;;;;;5041254;28;20174;-84
2024/01/15 10:40:55;;;;;;;24.08;5.63;;;2.10;99.90;;;;;;5040838;28;20632;-84
2024/01/15 10:43:21;;;;;;;19.80;5.43;;;2.20;99.90;;;;;;5024053;28;20166;-82
2024/01/15 10:45:48;;;;;;;20.20;6.10;;;2.30;99.90;;;;;;5040834;28;20531;-84
2024/01/15 10:48:17;;;;;;;22.15;6.03;;;2.20;99.90;;;;;;5040528;28;20619;-85
2024/01/15 10:50:44;;;;;;;23.23;6.07;;;2.20;99.90;;;;;;5040348;28;20170;-83
2024/01/15 10:53:12;;;;;;;24.25;6.85;;;2.10;99.90;;;;;;5040145;28;20200;-84
2024/01/15 10:55:41;;;;;;;19.65;5.35;;;2.10;99.90;;;;;;5040381;28;20197;-84
2024/01/15 10:58:07;;;;;;;18.95;4.95;;;2.10;99.90;;;;;;5040922;28;20597;-83
2024/01/15 11:00:35;;;;;;;18.87;4.83;;;2.00;99.90;;;;;;5039567;28;20212;-83
2024/01/15 11:03:02;;;;;;;19.48;5.03;;;2.00;99.90;;;;;;5039786;28;20480;-83
2024/01/15 11:05:28;;;;;;;22.90;4.35;;;2.00;99.90;;;;;;5021859;28;20601;-82
2024/01/15 11:08:00;;;;;;;19.83;4.50;;;2.00;99.90;;;;;;5039110;28;20276;-84
2024/01/15 11:10:48;;;;;;;17.88;3.55;;;2.00;99.90;;;;;;5021744;28;20662;-83
2024/01/15 11:13:32;;;;;;;17.75;3.90;;;2.10;99.90;;;;;;5039106;28;20182;-83
2024/01/15 11:16:10;;;;;;;19.92;3.95;;;2.10;99.90;;;;;;5038977;28;20142;-83
2024/01/15 11:18:58;;;;;;;19.70;3.95;;;2.10;99.90;;;;;;5038974;28;20161;-84
2024/01/15 11:21:26;;;;;;;20.25;5.50;;;2.10;99.90;;;;;;5038650;28;20162;-82
2024/01/15 11:23:53;;;;;;;21.80;5.70;;;2.00;99.90;;;;;;5038405;28;20165;-82
2024/01/15 11:26:43;;;;;;;19.90;4.93;;;2.10;99.90;;;;;;5020463;28;20584;-83
2024/01/15 11:29:30;;;;;;;20.40;4.75;;;2.10;99.90;;;;;;5039249;28;20150;-82
2024/01/15 11:32:04;;;;;;;19.90;5.20;;;2.10;99.90;;;;;;5038950;28;20711;-83
2024/01/15 11:34:50;;;;;;;20.60;5.30;;;2.10;99.90;;;;;;5038515;28;20177;-82
2024/01/15 11:37:16;;;;;;;21.58;5.60;;;2.20;99.90;;;;;;5039177;28;20283;-83
2024/01/15 11:39:46;;;;;;;21.93;6.23;;;2.30;99.90;;;;;;5039714;28;20158;-82
2024/01/15 11:42:13;;;;;;;20.42;5.95;;;2.30;99.90;;;;;;5021782;28;20436;-82
2024/01/15 11:44:39;;;;;;;20.90;5.93;;;2.30;99.90;;;;;;5021614;28;20178;-82
2024/01/15 11:47:12;;;;;;;19.48;5.15;;;2.20;99.90;;;;;;5038729;28;20710;-84
2024/01/15 11:50:05;;;;;;;19.52;5.00;;;2.30;99.90;;;;;;5038791;28;20551;-83
2024/01/15 11:52:36;;;;;;;20.60;5.80;;;2.30;99.90;;;;;;5035260;28;20198;-83
2024/01/15 11:55:07;;;;;;;22.83;6.00;;;2.30;99.90;;;;;;5021240;28;20172;-83
2024/01/15 11:57:46;;;;;;;24.30;7.38;;;2.30;99.90;;;;;;5038457;28;20186;-83
2024/01/15 12:00:13;;;;;;;20.55;6.65;;;2.30;99.90;;;;;;5038874;28;20209;-83
2024/01/15 12:02:43;;;;;;;22.65;6.70;;;2.30;99.90;;;;;;5020905;28;20174;-83
2024/01/15 12:05:12;;;;;;;28.48;8.40;;;2.20;99.90;;;;;;5020639;28;20631;-83
2024/01/15 12:07:41;;;;;;;25.90;7.82;;;2.30;99.90;;;;;;5038177;28;20240;-82
2024/01/15 12:10:12;;;;;;;21.58;6.95;;;2.20;99.90;;;;;;5020675;28;20645;-83
2024/01/15 12:12:49;;;;;;;21.25;5.93;;;2.20;99.90;;;;;;5020008;28;20201;-82
2024/01/15 12:15:15;;;;;;;22.88;6.20;;;2.30;99.90;;;;;;5020220;28;20216;-82
2024/01/15 12:17:41;;;;;;;20.52;5.65;;;2.30;99.90;;;;;;5038988;28;20552;-82
2024/01/15 12:20:07;;;;;;;22.47;5.77;;;2.40;99.90;;;;;;5038943;28;20245;-82
2024/01/15 12:22:33;;;;;;;23.23;6.30;;;2.50;99.90;;;;;;5019925;28;20178;-83
2024/01/15 12:24:59;;;;;;;21.40;5.33;;;2.50;99.90;;;;;;5038143;28;20170;-81
2024/01/15 12:27:25;;;;;;;28.33;5.40;;;2.60;99.90;;;;;;5039035;28;20448;-82
2024/01/15 12:29:53;;;;;;;21.35;4.78;;;2.60;99.90;;;;;;5039457;28;20170;-83
2024/01/15 12:32:19;;;;;;;23.35;5.55;;;2.60;99.90;;;;;;5021912;28;20251;-82
2024/01/15 12:34:44;;;;;;;21.40;4.97;;;2.60;99.90;;;;;;5021589;28;20165;-83
2024/01/15 12:37:12;;;;;;;21.83;4.93;;;2.70;99.90;;;;;;5040786;28;20539;-83
2024/01/15 12:39:37;;;;;;;28.33;4.68;;;2.70;99.90;;;;;;5039521;28;20158;-83